Aeroporto :
LOGIN :

Iscrizione | Disclaimer

   EN    FR    IT 

 










Sommario :    VFR   VFR Marginale   IFR   IFR Intensivo   IFR Molto Intensivo
Visibilità : 
Base nubi : 
>= 8 km
>= 3000ft
5 / 8 km
1000 / 3000 ft
1500m / 5 km
500 / 1000 ft
800 / 1500m
200 / 500 ft
< 800m
< 200 ft
Simboli :   Temporali  Nebbia  Neve Forte  Precipitazioni Forti  Vento > 20 kt
SIGMETs :   Varie  Temporali  Ghiacco  Turbolenza  Onda orograficha  Ceneri Vulcaniche






- Altitudine del aeroporto : 1106 ft


LFSO - Nancy / Ochey

ULTIMO METAR :
  • 100000Z AUTO 36002KT CAVOK 11/02 Q1023

METARs OBSOLETI :
  • 092330Z AUTO VRB02KT CAVOK 11/02 Q1023
  • 092300Z AUTO 35003KT 320V030 CAVOK 13/01 Q1023
  • 092230Z AUTO VRB02KT CAVOK 12/01 Q1023
  • 092200Z AUTO 07003KT CAVOK 13/01 Q1023
  • 092130Z AUTO 09005KT CAVOK 15/01 Q1023
  • 092100Z AUTO 09004KT CAVOK 15/01 Q1023

TAF TAF LFSO
Valido dal 09 a 15 ore il 10 a 15 ore UTC


091400Z 0915/1015 05005KT CAVOK



MetMap, La meteo Aeronautica in un colpo d'occhio ! - Copyright ORBIFLY Dicembre 2007 - Disclaimer

ORBIFLY MET'MAP TEAM :

Programmazione e sviluppo : Alexandra Zaïnal
Concezione : Baudouin d'Aumeries
Aiuto per la programmazione : Marc-Olivier Méhu
Supporto tecnico e logistico : Manuel Goepfert
Aiuto per la traduzione : Arnaldo La Scala

Contatto : metmap@orbifly.com




FONTI E CREDITI :

   NOAA